Time;durP1;ratioP1;P1;durP2;ratioP2;P2;SDS_P1;SDS_P2;PMS_P1;PMS_P2;Temp;Humidity;BMP_temperature;BMP_pressure;BME280_temperature;BME280_humidity;BME280_pressure;Samples;Min_cycle;Max_cycle;Signal;HPM_P1;HPM_P2
2023/04/11 00:00:39;;;;;;;14.60;10.23;;;;;;;8.17;50.44;100891.15;1731036;82;21197;-62
2023/04/11 00:03:45;;;;;;;14.03;10.13;;;;;;;8.12;50.54;100892.97;1730504;81;21402;-62
2023/04/11 00:06:51;;;;;;;15.58;10.35;;;;;;;8.10;50.59;100883.22;1730670;81;21205;-61
2023/04/11 00:09:57;;;;;;;15.25;10.18;;;;;;;8.06;50.63;100895.41;1738461;78;21354;-60
2023/04/11 00:13:06;;;;;;;13.95;10.18;;;;;;;8.03;50.78;100902.53;1736043;81;21252;-61
2023/04/11 00:16:12;;;;;;;23.98;19.20;;;;;;;8.02;50.82;100888.55;1722028;83;21225;-62
2023/04/11 00:19:24;;;;;;;15.72;11.00;;;;;;;7.99;50.88;100890.22;1722033;82;21367;-62
2023/04/11 00:22:27;;;;;;;13.00;10.45;;;;;;;7.97;50.91;100886.77;1720589;83;21297;-61
2023/04/11 00:25:35;;;;;;;17.35;10.38;;;;;;;7.93;51.00;100876.66;1770869;80;21260;-62
2023/04/11 00:28:42;;;;;;;16.10;9.95;;;;;;;7.93;51.11;100878.55;1735900;81;21200;-61
2023/04/11 00:31:49;;;;;;;12.47;9.90;;;;;;;7.90;51.17;100879.67;1721782;83;21356;-61
2023/04/11 00:34:54;;;;;;;13.48;10.10;;;;;;;7.88;51.21;100878.95;1721995;83;21288;-62
2023/04/11 00:38:01;;;;;;;15.58;10.25;;;;;;;7.83;51.21;100877.20;1722196;83;21407;-61
2023/04/11 00:41:07;;;;;;;14.98;10.18;;;;;;;7.79;51.29;100879.84;1722074;83;21261;-61
2023/04/11 00:44:13;;;;;;;15.85;10.28;;;;;;;7.75;51.36;100886.61;1722001;83;21588;-62
2023/04/11 00:47:19;;;;;;;14.53;10.55;;;;;;;7.74;51.47;100881.30;1721991;83;21257;-61
2023/04/11 00:50:26;;;;;;;14.95;10.78;;;;;;;7.73;51.56;100882.28;1722088;83;21190;-61
2023/04/11 00:53:34;;;;;;;16.02;10.38;;;;;;;7.72;51.57;100883.30;1722079;83;21202;-62
2023/04/11 00:56:40;;;;;;;14.23;10.00;;;;;;;7.69;51.65;100882.23;1706807;83;21226;-61
2023/04/11 00:59:47;;;;;;;13.90;9.80;;;;;;;7.69;51.75;100878.15;1722036;83;21190;-62
2023/04/11 01:02:55;;;;;;;13.30;9.48;;;;;;;7.67;51.77;100870.61;1720134;83;21221;-61
2023/04/11 01:06:02;;;;;;;16.75;9.73;;;;;;;7.66;51.84;100874.36;1720249;83;21301;-61
2023/04/11 01:09:08;;;;;;;15.35;9.68;;;;;;;7.63;51.93;100866.82;1770931;81;21189;-62
2023/04/11 01:12:15;;;;;;;12.33;9.73;;;;;;;7.63;52.00;100865.11;1768090;80;21185;-62
2023/04/11 01:15:21;;;;;;;17.02;9.65;;;;;;;7.61;52.12;100858.45;1770867;80;21184;-61
2023/04/11 01:18:27;;;;;;;14.35;9.75;;;;;;;7.61;52.13;100852.47;1770336;80;21508;-61
2023/04/11 01:21:34;;;;;;;14.35;9.13;;;;;;;7.61;52.23;100853.00;1771689;80;21233;-60
2023/04/11 01:24:41;;;;;;;13.50;9.65;;;;;;;7.60;52.33;100841.23;1770845;80;21327;-62
2023/04/11 01:27:47;;;;;;;14.33;10.05;;;;;;;7.60;52.38;100843.95;1771026;80;21754;-62
2023/04/11 01:30:53;;;;;;;17.40;9.38;;;;;;;7.61;52.46;100840.22;1735622;82;21165;-61
2023/04/11 01:33:59;;;;;;;11.93;8.78;;;;;;;7.61;52.49;100848.39;1770863;79;21174;-62
2023/04/11 01:37:05;;;;;;;14.58;9.13;;;;;;;7.61;52.57;100838.85;1771566;80;21244;-60
2023/04/11 01:40:14;;;;;;;11.43;8.33;;;;;;;7.63;52.65;100840.94;1771313;80;21256;-61
2023/04/11 01:43:21;;;;;;;18.27;9.55;;;;;;;7.63;52.71;100838.70;1770683;80;21310;-62
2023/04/11 01:46:27;;;;;;;15.80;8.43;;;;;;;7.63;52.78;100840.94;1770779;79;21410;-61
2023/04/11 01:49:33;;;;;;;12.82;8.75;;;;;;;7.66;52.86;100837.58;1764055;80;21233;-61
2023/04/11 01:52:39;;;;;;;18.42;9.15;;;;;;;7.67;52.88;100837.91;1771312;79;21355;-61
2023/04/11 01:55:46;;;;;;;11.63;8.63;;;;;;;7.67;52.90;100834.70;1771497;79;21193;-62
2023/04/11 01:58:52;;;;;;;14.00;8.35;;;;;;;7.66;52.95;100832.12;1770830;80;21169;-62
2023/04/11 02:01:59;;;;;;;13.80;8.98;;;;;;;7.67;53.05;100837.91;1770675;80;21379;-61
2023/04/11 02:05:06;;;;;;;10.75;8.28;;;;;;;7.67;53.07;100832.47;1771040;80;21177;-61
2023/04/11 02:08:12;;;;;;;14.23;8.85;;;;;;;7.66;53.13;100827.52;1770836;81;21236;-61
2023/04/11 02:11:20;;;;;;;15.38;8.85;;;;;;;7.64;53.17;100830.37;1770686;80;21272;-62
2023/04/11 02:14:28;;;;;;;13.95;8.98;;;;;;;7.64;53.23;100832.27;1769204;80;21225;-61
2023/04/11 02:17:35;;;;;;;11.63;8.18;;;;;;;7.64;53.30;100826.30;1771401;80;21197;-62
2023/04/11 02:20:42;;;;;;;14.68;9.03;;;;;;;7.64;53.36;100831.74;1771165;80;21335;-61
2023/04/11 02:23:52;;;;;;;12.95;8.70;;;;;;;7.66;53.40;100838.94;1771065;80;21220;-66
2023/04/11 02:27:00;;;;;;;10.95;8.45;;;;;;;7.65;53.46;100839.42;1763547;81;21295;-65
2023/04/11 02:30:06;;;;;;;13.13;9.30;;;;;;;7.63;53.47;100840.94;1770997;80;21286;-66
2023/04/11 02:33:12;;;;;;;15.03;8.60;;;;;;;7.63;53.51;100840.59;1771141;80;21178;-66
2023/04/11 02:36:19;;;;;;;13.32;9.15;;;;;;;7.62;53.57;100837.00;1771092;81;21274;-67
2023/04/11 02:39:26;;;;;;;16.70;9.13;;;;;;;7.61;53.63;100841.58;1770986;79;21181;-66
2023/04/11 02:42:32;;;;;;;13.72;8.50;;;;;;;7.63;53.71;100853.20;1770987;81;21244;-67
2023/04/11 02:45:40;;;;;;;15.88;9.55;;;;;;;7.63;53.72;100854.22;1771125;80;21268;-67
2023/04/11 02:48:49;;;;;;;18.70;10.45;;;;;;;7.64;53.80;100849.45;1771190;80;21181;-67
2023/04/11 02:51:56;;;;;;;12.53;9.43;;;;;;;7.64;53.83;100852.70;1762537;81;21320;-66
2023/04/11 02:55:02;;;;;;;12.95;8.95;;;;;;;7.64;53.87;100842.64;1771033;80;21190;-66
2023/04/11 02:58:07;;;;;;;14.87;8.95;;;;;;;7.63;53.92;100852.33;1771030;81;21253;-67
2023/04/11 03:01:15;;;;;;;14.00;9.03;;;;;;;7.65;53.97;100842.16;1771091;81;21201;-67
2023/04/11 03:04:22;;;;;;;13.72;8.73;;;;;;;7.64;53.98;100838.55;1771069;81;21181;-67
2023/04/11 03:07:31;;;;;;;35.08;16.30;;;;;;;7.65;54.00;100840.79;1771114;80;21229;-67
2023/04/11 03:10:40;;;;;;;16.30;10.75;;;;;;;7.64;54.03;100835.83;1783589;80;21726;-67
2023/04/11 03:13:49;;;;;;;15.53;8.65;;;;;;;7.64;54.09;100842.64;1771610;79;21331;-68
2023/04/11 03:16:55;;;;;;;13.60;8.85;;;;;;;7.67;54.12;100839.28;1771042;80;21209;-66
2023/04/11 03:20:05;;;;;;;14.03;8.30;;;;;;;7.66;54.15;100837.05;1771193;80;21200;-66
2023/04/11 03:23:12;;;;;;;12.55;7.97;;;;;;;7.68;54.14;100837.77;1771104;80;21224;-65
2023/04/11 03:26:19;;;;;;;13.35;7.97;;;;;;;7.68;54.24;100833.69;1771103;80;21279;-68
2023/04/11 03:29:28;;;;;;;15.15;8.15;;;;;;;7.73;54.27;100831.88;1770892;79;21233;-67
2023/04/11 03:32:36;;;;;;;15.88;8.23;;;;;;;7.77;54.37;100831.95;1771035;80;21252;-68
2023/04/11 03:35:43;;;;;;;13.32;8.50;;;;;;;7.82;54.41;100831.02;1771666;80;21240;-67
2023/04/11 03:38:52;;;;;;;15.75;9.15;;;;;;;7.86;54.38;100836.52;1771654;79;21220;-67
2023/04/11 03:42:00;;;;;;;25.40;15.10;;;;;;;7.90;54.42;100829.25;1771202;80;21263;-66
2023/04/11 03:45:06;;;;;;;19.27;11.15;;;;;;;7.96;54.45;100828.66;1771091;80;21370;-66
2023/04/11 03:48:13;;;;;;;16.95;9.30;;;;;;;8.02;54.50;100829.94;1771180;79;21181;-67
2023/04/11 03:51:21;;;;;;;12.53;8.30;;;;;;;8.07;54.55;100827.10;1770787;81;21264;-66
2023/04/11 03:54:28;;;;;;;17.50;8.55;;;;;;;8.14;54.56;100817.83;1770889;80;21305;-65
2023/04/11 03:57:35;;;;;;;15.03;7.40;;;;;;;8.19;54.58;100823.70;1771421;80;21205;-64
2023/04/11 04:00:41;;;;;;;12.98;6.85;;;;;;;8.24;54.62;100814.11;1770901;80;21185;-66
2023/04/11 04:03:48;;;;;;;12.70;7.17;;;;;;;8.31;54.63;100814.36;1771180;80;21193;-65
2023/04/11 04:06:58;;;;;;;12.35;7.25;;;;;;;8.36;54.68;100818.84;1770967;81;21275;-67
2023/04/11 04:10:07;;;;;;;22.90;10.53;;;;;;;8.45;54.74;100822.88;1770893;81;21173;-67
2023/04/11 04:13:15;;;;;;;15.35;8.25;;;;;;;8.54;54.75;100823.85;1771619;80;21593;-67
2023/04/11 04:16:36;;;;;;;13.45;8.03;;;;;;;8.61;54.76;100820.35;1769659;79;21319;-66
2023/04/11 04:19:44;;;;;;;15.40;8.23;;;;;;;8.71;54.81;100821.66;1762011;81;21197;-65
2023/04/11 04:22:52;;;;;;;19.62;8.60;;;;;;;8.80;54.79;100822.12;1770350;80;21248;-67
2023/04/11 04:26:01;;;;;;;19.32;9.35;;;;;;;8.87;54.80;100816.37;1770116;80;21174;-68
2023/04/11 04:29:09;;;;;;;17.85;9.18;;;;;;;8.95;54.78;100817.83;1770145;81;21221;-67
2023/04/11 04:32:22;;;;;;;17.57;8.63;;;;;;;9.05;54.83;100824.92;1770238;81;21721;-67
2023/04/11 04:35:33;;;;;;;22.07;9.48;;;;;;;9.18;54.84;100812.77;1791398;79;21229;-67
2023/04/11 04:38:40;;;;;;;23.38;9.13;;;;;;;9.28;54.83;100816.27;1792987;79;21746;-64
2023/04/11 04:41:48;;;;;;;18.52;7.95;;;;;;;9.39;54.84;100813.32;1787575;79;21877;-64
2023/04/11 04:44:57;;;;;;;15.05;7.97;;;;;;;9.49;54.81;100814.06;1772733;79;21181;-64
2023/04/11 04:48:04;;;;;;;13.45;8.03;;;;;;;9.62;54.88;100817.25;1786392;79;21754;-65
2023/04/11 04:51:13;;;;;;;12.82;7.95;;;;;;;9.75;54.86;100807.59;1770127;79;21283;-63
2023/04/11 04:54:20;;;;;;;12.93;7.58;;;;;;;9.87;54.81;100805.47;1784698;79;21679;-62
2023/04/11 04:57:25;;;;;;;13.85;6.85;;;;;;;10.00;54.86;100793.09;1756741;80;21558;-66
2023/04/11 05:00:32;;;;;;;14.23;7.08;;;;;;;10.14;54.79;100799.35;1739842;81;21289;-64
2023/04/11 05:03:40;;;;;;;12.07;7.60;;;;;;;10.26;54.77;100801.27;1733080;82;21779;-66
2023/04/11 05:06:49;;;;;;;12.90;7.30;;;;;;;10.40;54.77;100805.63;1727921;82;21624;-64
2023/04/11 05:09:56;;;;;;;10.45;7.00;;;;;;;10.53;54.76;100803.28;1732868;82;21373;-67
2023/04/11 05:13:02;;;;;;;77.82;39.38;;;;;;;10.65;54.73;100793.39;1749814;81;21253;-64
2023/04/11 05:16:10;;;;;;;12.20;6.58;;;;;;;10.79;54.68;100794.98;1722729;81;21259;-62
2023/04/11 05:19:16;;;;;;;14.58;8.23;;;;;;;10.91;54.67;100797.74;1707544;83;21234;-68
2023/04/11 05:22:22;;;;;;;13.15;6.65;;;;;;;11.02;54.60;100791.94;1720936;82;21333;-65
2023/04/11 05:25:28;;;;;;;11.55;6.70;;;;;;;11.14;54.59;100795.22;1720039;83;21249;-67
2023/04/11 05:28:38;;;;;;;11.38;6.22;;;;;;;11.27;54.60;100785.99;1723294;82;22217;-65
2023/04/11 05:31:45;;;;;;;76.12;38.17;;;;;;;11.41;54.57;100787.55;1789276;79;21205;-66
2023/04/11 05:35:01;;;;;;;12.63;6.37;;;;;;;11.58;54.58;100789.75;1801618;79;21765;-66
2023/04/11 05:38:09;;;;;;;11.97;6.72;;;;;;;11.74;54.53;100785.16;1799393;78;21155;-66
2023/04/11 05:41:16;;;;;;;15.50;6.67;;;;;;;11.91;54.46;100785.96;1781577;79;21201;-66
2023/04/11 05:44:25;;;;;;;10.28;6.08;;;;;;;12.08;54.41;100780.27;1786955;79;21182;-65
2023/04/11 05:47:33;;;;;;;10.55;6.15;;;;;;;12.24;54.34;100784.01;1802670;78;21561;-66
2023/04/11 05:50:40;;;;;;;18.65;7.28;;;;;;;12.42;54.32;100774.99;1783099;79;21197;-67
2023/04/11 05:53:46;;;;;;;12.35;6.85;;;;;;;12.56;54.17;100779.77;1775581;79;21197;-67
2023/04/11 05:56:53;;;;;;;13.05;7.03;;;;;;;12.70;54.16;100777.09;1785843;79;21217;-66
2023/04/11 06:00:00;;;;;;;9.93;6.03;;;;;;;12.87;54.15;100769.11;1776691;78;21830;-67
2023/04/11 06:03:09;;;;;;;15.43;6.47;;;;;;;13.05;54.08;100776.56;1795565;78;21745;-68
2023/04/11 06:06:15;;;;;;;12.05;6.40;;;;;;;13.24;54.02;100768.38;1756462;81;21259;-66
2023/04/11 06:09:22;;;;;;;10.25;5.70;;;;;;;13.43;53.90;100772.84;1721171;83;21238;-68
2023/04/11 06:12:31;;;;;;;13.40;7.17;;;;;;;13.60;53.81;100763.07;1730912;81;21329;-67
2023/04/11 06:15:39;;;;;;;14.40;6.10;;;;;;;13.77;53.66;100760.49;1734993;81;21341;-65
2023/04/11 06:18:44;;;;;;;12.10;5.33;;;;;;;13.90;53.55;100755.20;1728975;81;21936;-67
2023/04/11 06:21:49;;;;;;;11.48;6.00;;;;;;;14.01;53.41;100754.73;1726975;82;21229;-67
2023/04/11 06:24:54;;;;;;;11.30;5.15;;;;;;;14.08;53.22;100748.83;1747701;82;21338;-64
2023/04/11 06:28:01;;;;;;;13.48;7.78;;;;;;;14.14;53.13;100759.94;1749481;80;21189;-66
2023/04/11 06:31:08;;;;;;;13.40;6.28;;;;;;;14.21;53.06;100754.50;1742426;81;21217;-66
2023/04/11 06:34:14;;;;;;;10.70;6.25;;;;;;;14.30;52.98;100745.15;1781514;79;21221;-67
2023/04/11 06:37:21;;;;;;;13.32;5.42;;;;;;;14.35;52.92;100745.44;1774625;79;21209;-65
2023/04/11 06:40:29;;;;;;;15.58;6.12;;;;;;;14.40;52.86;100739.66;1775405;79;21217;-66
2023/04/11 06:43:39;;;;;;;10.88;5.28;;;;;;;14.35;52.62;100737.17;1788085;79;21261;-66
2023/04/11 06:46:45;;;;;;;12.13;5.67;;;;;;;14.31;52.62;100740.83;1783939;78;21201;-68
2023/04/11 06:49:54;;;;;;;21.87;6.53;;;;;;;14.33;52.57;100735.98;1763137;81;21180;-66
2023/04/11 06:53:03;;;;;;;11.15;5.28;;;;;;;14.36;52.48;100733.36;1783923;79;21592;-67
2023/04/11 06:56:11;;;;;;;9.00;4.80;;;;;;;14.34;52.37;100728.05;1781025;79;21186;-65
2023/04/11 06:59:19;;;;;;;13.68;5.80;;;;;;;14.36;52.31;100729.23;1789339;79;21177;-67
2023/04/11 07:02:26;;;;;;;9.25;5.00;;;;;;;14.36;52.15;100720.45;1788250;79;21817;-66
2023/04/11 07:05:33;;;;;;;13.45;5.42;;;;;;;14.46;52.16;100714.09;1762266;81;21342;-68
2023/04/11 07:08:42;;;;;;;12.35;4.75;;;;;;;14.59;52.09;100714.78;1771818;80;21185;-66
2023/04/11 07:11:48;;;;;;;11.53;5.30;;;;;;;14.73;51.98;100711.99;1771856;80;21840;-67
2023/04/11 07:14:57;;;;;;;13.95;6.37;;;;;;;14.82;51.79;100709.47;1771910;79;21185;-66
2023/04/11 07:18:04;;;;;;;15.68;5.33;;;;;;;14.91;51.70;100708.80;1775670;79;21200;-65
2023/04/11 07:21:10;;;;;;;13.32;5.20;;;;;;;14.98;51.56;100707.81;1735700;82;21561;-66
2023/04/11 07:24:17;;;;;;;13.78;4.72;;;;;;;15.07;51.45;100696.66;1721116;83;21446;-66
2023/04/11 07:27:23;;;;;;;13.62;4.33;;;;;;;15.15;51.31;100696.52;1705476;83;21238;-66
2023/04/11 07:30:29;;;;;;;11.08;4.37;;;;;;;15.24;51.18;100688.46;1721062;82;22003;-67
2023/04/11 07:33:39;;;;;;;10.23;4.17;;;;;;;15.27;50.98;100690.27;1776536;79;21912;-64
2023/04/11 07:36:45;;;;;;;9.28;4.00;;;;;;;15.39;50.95;100690.11;1800968;78;21253;-66
2023/04/11 07:39:51;;;;;;;9.30;4.08;;;;;;;15.52;50.74;100676.44;1779739;79;21194;-67
2023/04/11 07:42:57;;;;;;;14.60;4.33;;;;;;;15.64;50.60;100680.33;1785718;79;21260;-67
2023/04/11 07:46:02;;;;;;;13.38;4.67;;;;;;;15.75;50.42;100677.01;1771562;79;21205;-62
2023/04/11 07:49:09;;;;;;;9.60;4.00;;;;;;;15.83;50.21;100660.29;1778833;79;21273;-62
2023/04/11 07:52:15;;;;;;;6.90;4.50;;;;;;;15.83;49.98;100654.77;1777773;79;21189;-64
2023/04/11 07:55:21;;;;;;;12.13;4.35;;;;;;;15.86;49.80;100639.17;1778888;79;21762;-61
2023/04/11 07:58:29;;;;;;;11.18;4.20;;;;;;;15.87;49.59;100654.67;1770087;79;21225;-63
2023/04/11 08:01:36;;;;;;;10.55;4.08;;;;;;;15.89;49.47;100645.66;1783232;79;21255;-64
2023/04/11 08:04:43;;;;;;;9.95;4.40;;;;;;;15.97;49.33;100648.27;1789980;79;21233;-64
2023/04/11 08:07:50;;;;;;;6.92;3.67;;;;;;;16.05;49.19;100636.19;1782673;79;21193;-65
2023/04/11 08:10:55;;;;;;;8.75;3.70;;;;;;;16.16;49.07;100643.88;1791572;79;21205;-66
2023/04/11 08:14:02;;;;;;;9.78;4.10;;;;;;;16.28;48.90;100632.03;1793444;78;21260;-64
2023/04/11 08:17:13;;;;;;;9.90;4.22;;;;;;;16.38;48.67;100622.84;1781390;79;21339;-64
2023/04/11 08:20:18;;;;;;;8.50;4.05;;;;;;;16.44;48.43;100630.84;1769932;80;21562;-63
2023/04/11 08:23:24;;;;;;;15.43;4.67;;;;;;;16.50;48.22;100607.06;1791374;79;21268;-62
2023/04/11 08:26:46;;;;;;;10.65;4.05;;;;;;;16.50;48.03;100618.12;1797813;78;21201;-61
2023/04/11 08:30:16;;;;;;;11.90;4.47;;;;;;;16.55;47.84;100614.20;1773313;79;21219;-61
2023/04/11 08:33:31;;;;;;;9.45;4.17;;;;;;;16.56;47.61;100616.76;1797543;79;21209;-60
2023/04/11 08:36:37;;;;;;;11.73;4.67;;;;;;;16.50;47.33;100612.59;1802001;79;21368;-63
2023/04/11 08:39:43;;;;;;;6.90;3.72;;;;;;;16.50;47.19;100601.53;1778235;79;21229;-60
2023/04/11 08:42:52;;;;;;;9.43;4.15;;;;;;;16.50;46.97;100604.30;1771253;79;21773;-60
2023/04/11 08:45:59;;;;;;;6.55;4.20;;;;;;;16.56;46.86;100586.88;1790898;79;21181;-61
2023/04/11 08:49:05;;;;;;;10.63;3.72;;;;;;;16.65;46.70;100595.31;1794085;79;21181;-61
2023/04/11 08:52:11;;;;;;;8.78;4.50;;;;;;;16.77;46.58;100584.80;1769227;79;21216;-61
2023/04/11 08:55:17;;;;;;;12.73;4.15;;;;;;;16.90;46.43;100584.83;1769275;81;21180;-62
2023/04/11 08:58:23;;;;;;;6.67;3.58;;;;;;;17.05;46.19;100592.89;1762839;79;21209;-60
2023/04/11 09:01:39;;;;;;;11.97;3.98;;;;;;;17.17;45.93;100580.14;1772033;79;21205;-61
2023/04/11 09:04:47;;;;;;;20.12;4.28;;;;;;;17.31;45.76;100561.08;1778819;79;21888;-62
2023/04/11 09:07:57;;;;;;;7.47;4.08;;;;;;;17.45;45.43;100557.24;1784022;79;21265;-61
2023/04/11 09:11:07;;;;;;;10.75;3.72;;;;;;;17.61;45.27;100566.48;1780278;79;21303;-60
2023/04/11 09:14:18;;;;;;;13.78;3.67;;;;;;;17.81;45.16;100565.87;1776330;79;21198;-61
2023/04/11 09:17:25;;;;;;;11.97;3.75;;;;;;;18.08;45.05;100559.69;1784068;78;21774;-59
2023/04/11 09:20:32;;;;;;;7.62;3.72;;;;;;;18.33;44.81;100540.69;1772669;79;21193;-61
2023/04/11 09:23:38;;;;;;;9.30;4.22;;;;;;;18.51;44.53;100547.77;1770085;79;21224;-61
2023/04/11 09:26:45;;;;;;;12.23;4.03;;;;;;;18.71;44.37;100534.60;1770560;80;21261;-59
2023/04/11 09:29:55;;;;;;;7.97;3.65;;;;;;;18.83;44.02;100525.89;1786508;79;21240;-62
2023/04/11 09:33:02;;;;;;;27.22;5.30;;;;;;;18.77;43.57;100525.41;1763140;81;21280;-60
2023/04/11 09:36:15;;;;;;;5.72;3.58;;;;;;;18.61;43.20;100523.71;1770343;79;21225;-64
2023/04/11 09:39:27;;;;;;;9.38;3.52;;;;;;;18.46;43.02;100514.84;1768597;80;21185;-59
2023/04/11 09:42:34;;;;;;;11.22;3.87;;;;;;;18.38;42.87;100516.48;1770534;81;21772;-60
2023/04/11 09:45:43;;;;;;;13.72;3.60;;;;;;;18.36;42.73;100513.91;1771312;80;21165;-59
2023/04/11 09:48:51;;;;;;;7.92;3.98;;;;;;;18.40;42.57;100509.67;1770111;79;21297;-60
2023/04/11 09:52:00;;;;;;;8.15;3.87;;;;;;;18.42;42.36;100506.14;1788031;79;21718;-60
2023/04/11 09:55:13;;;;;;;6.87;3.65;;;;;;;18.48;42.21;100499.70;1780708;79;21551;-61
2023/04/11 09:58:19;;;;;;;6.08;3.67;;;;;;;18.60;42.04;100488.75;1766255;79;21196;-59
2023/04/11 10:01:26;;;;;;;8.33;4.45;;;;;;;18.70;41.83;100482.13;1769891;81;21188;-61
2023/04/11 10:04:33;;;;;;;9.40;3.67;;;;;;;18.78;41.62;100488.79;1778682;79;21306;-60
2023/04/11 10:07:37;;;;;;;8.58;3.67;;;;;;;18.75;41.43;100473.46;1781458;79;21261;-59
2023/04/11 10:10:42;;;;;;;17.40;4.95;;;;;;;18.76;41.21;100469.60;1788394;79;21181;-59
2023/04/11 10:13:54;;;;;;;8.35;4.22;;;;;;;18.74;41.05;100460.65;1800884;79;21174;-60
2023/04/11 10:17:24;;;;;;;8.25;4.25;;;;;;;18.88;40.93;100458.09;1795548;79;21981;-59
2023/04/11 10:20:53;;;;;;;7.25;4.62;;;;;;;19.02;40.88;100451.34;1790390;78;21484;-54
2023/04/11 10:24:25;;;;;;;7.30;4.70;;;;;;;19.20;40.70;100437.46;1783362;79;21193;-56
2023/04/11 10:28:03;;;;;;;9.18;4.87;;;;;;;19.36;40.40;100444.36;1781765;79;21219;-56
2023/04/11 10:31:17;;;;;;;10.82;3.70;;;;;;;19.50;40.20;100440.37;1782455;79;21186;-57
2023/04/11 10:34:23;;;;;;;7.72;3.87;;;;;;;19.66;40.07;100441.66;1781625;79;21223;-58
2023/04/11 10:37:40;;;;;;;10.20;3.55;;;;;;;19.74;39.93;100437.18;1787615;79;21184;-57
2023/04/11 10:41:08;;;;;;;6.47;3.22;;;;;;;19.77;39.74;100420.04;1780134;79;21184;-58
2023/04/11 10:44:23;;;;;;;10.08;3.40;;;;;;;19.70;39.47;100410.41;1776299;79;21256;-60
2023/04/11 10:47:30;;;;;;;8.08;3.12;;;;;;;19.63;39.24;100408.23;1776579;79;21268;-60
2023/04/11 10:50:40;;;;;;;6.28;3.20;;;;;;;19.52;39.11;100403.47;1791342;79;21189;-64
2023/04/11 10:53:47;;;;;;;9.43;3.40;;;;;;;19.44;38.91;100423.78;1796844;79;21236;-61
2023/04/11 10:57:01;;;;;;;8.23;3.80;;;;;;;19.27;38.66;100407.72;1771049;80;21236;-59
2023/04/11 11:00:13;;;;;;;10.78;3.10;;;;;;;19.09;38.46;100390.22;1780137;79;21213;-60
2023/04/11 11:03:33;;;;;;;6.67;3.35;;;;;;;18.94;38.28;100400.83;1783185;79;21767;-59
2023/04/11 11:06:41;;;;;;;13.53;4.17;;;;;;;18.88;38.23;100397.59;1729567;82;21261;-62
2023/04/11 11:09:55;;;;;;;8.80;3.50;;;;;;;18.83;38.12;100391.34;1717237;81;21730;-62
2023/04/11 11:13:02;;;;;;;13.58;5.12;;;;;;;18.78;37.98;100378.70;1786680;79;21845;-64
2023/04/11 11:16:08;;;;;;;11.45;4.00;;;;;;;18.75;37.87;100369.45;1777538;79;21256;-60
2023/04/11 11:19:15;;;;;;;7.87;3.47;;;;;;;18.77;37.75;100368.69;1774816;79;21746;-62
2023/04/11 11:22:25;;;;;;;9.98;3.42;;;;;;;18.79;37.69;100364.30;1755666;79;21480;-63
2023/04/11 11:25:32;;;;;;;7.87;3.90;;;;;;;18.83;37.59;100360.84;1766060;80;21709;-62
2023/04/11 11:28:40;;;;;;;8.03;3.40;;;;;;;18.90;37.54;100359.37;1766531;81;21196;-59
2023/04/11 11:31:52;;;;;;;7.22;3.35;;;;;;;18.95;37.46;100352.57;1733580;81;21191;-61
2023/04/11 11:34:57;;;;;;;12.18;4.17;;;;;;;18.95;37.28;100350.66;1743797;81;21415;-61
2023/04/11 11:38:03;;;;;;;13.45;3.52;;;;;;;18.91;37.16;100343.89;1753995;80;21263;-64
2023/04/11 11:41:10;;;;;;;43.50;20.20;;;;;;;18.95;37.10;100351.19;1750506;81;22088;-60
2023/04/11 11:44:17;;;;;;;12.78;3.77;;;;;;;19.01;37.03;100357.22;1765752;81;21309;-59
2023/04/11 11:47:26;;;;;;;11.73;3.70;;;;;;;19.03;36.86;100344.80;1765934;81;21833;-60
2023/04/11 11:50:35;;;;;;;10.55;3.47;;;;;;;19.03;36.83;100349.49;1763826;81;21169;-60
2023/04/11 11:53:42;;;;;;;8.73;3.50;;;;;;;19.09;36.81;100346.64;1765692;81;21242;-60
2023/04/11 11:56:49;;;;;;;7.97;3.60;;;;;;;19.12;36.69;100336.46;1754607;81;21217;-63
2023/04/11 12:00:08;;;;;;;12.37;3.70;;;;;;;19.19;36.60;100332.22;1718733;81;21216;-62
2023/04/11 12:03:16;;;;;;;13.28;4.25;;;;;;;19.19;36.46;100330.30;1757656;80;21204;-63
2023/04/11 12:06:23;;;;;;;17.30;4.90;;;;;;;19.14;36.37;100323.73;1748503;80;22034;-63
2023/04/11 12:09:39;;;;;;;11.40;3.95;;;;;;;19.05;36.18;100308.50;1756806;79;21759;-60
2023/04/11 12:12:48;;;;;;;9.73;4.15;;;;;;;18.90;36.14;100321.36;1764949;81;21172;-61
2023/04/11 12:16:00;;;;;;;10.13;3.98;;;;;;;18.88;36.13;100305.52;1765625;80;21685;-61
2023/04/11 12:19:08;;;;;;;9.30;3.58;;;;;;;18.83;36.11;100302.58;1766563;80;21716;-62
2023/04/11 12:22:18;;;;;;;9.88;5.53;;;;;;;18.80;36.06;100296.64;1763729;80;21749;-61
2023/04/11 12:25:27;;;;;;;15.45;3.98;;;;;;;18.80;35.97;100298.89;1777565;78;21227;-62
2023/04/11 12:28:33;;;;;;;12.53;3.92;;;;;;;18.70;35.92;100299.95;1783043;79;21248;-62
2023/04/11 12:31:40;;;;;;;11.35;3.45;;;;;;;18.63;35.80;100292.79;1779164;79;21193;-61
2023/04/11 12:34:47;;;;;;;7.20;3.42;;;;;;;18.51;35.75;100294.61;1779326;79;21240;-62
2023/04/11 12:37:53;;;;;;;10.28;3.42;;;;;;;18.45;35.76;100271.44;1777855;79;21212;-61
2023/04/11 12:40:58;;;;;;;10.18;3.35;;;;;;;18.38;35.72;100280.87;1772573;78;22112;-61
2023/04/11 12:44:06;;;;;;;11.25;3.10;;;;;;;18.31;35.67;100267.61;1734092;81;21255;-62
2023/04/11 12:47:14;;;;;;;8.78;3.55;;;;;;;18.25;35.63;100266.58;1723741;82;21232;-62
2023/04/11 12:50:25;;;;;;;6.60;3.30;;;;;;;18.24;35.66;100264.04;1727622;82;21203;-60
2023/04/11 12:53:29;;;;;;;10.78;3.87;;;;;;;18.27;35.71;100254.74;1730486;81;21210;-59
2023/04/11 12:56:35;;;;;;;10.50;4.25;;;;;;;18.28;35.64;100252.83;1798062;78;21818;-60
2023/04/11 12:59:41;;;;;;;8.35;3.75;;;;;;;18.25;35.52;100245.80;1779329;79;21169;-60
2023/04/11 13:02:49;;;;;;;12.37;3.67;;;;;;;18.20;35.49;100247.05;1801492;79;21236;-60
2023/04/11 13:05:57;;;;;;;8.10;3.70;;;;;;;18.15;35.46;100242.72;1802125;78;21866;-60
2023/04/11 13:09:06;;;;;;;11.85;3.47;;;;;;;18.10;35.44;100241.70;1801422;79;21213;-60
2023/04/11 13:12:13;;;;;;;11.10;3.42;;;;;;;18.05;35.44;100242.91;1770846;79;21765;-60
2023/04/11 13:15:20;;;;;;;7.35;3.40;;;;;;;18.00;35.41;100243.59;1776428;78;21185;-60
2023/04/11 13:18:25;;;;;;;9.58;3.72;;;;;;;17.93;35.38;100254.73;1769501;81;21185;-61
2023/04/11 13:21:32;;;;;;;7.90;3.60;;;;;;;17.87;35.40;100251.49;1775679;79;21200;-60
2023/04/11 13:24:38;;;;;;;14.23;4.47;;;;;;;17.84;35.41;100245.55;1778976;79;21182;-61
2023/04/11 13:27:44;;;;;;;8.50;3.98;;;;;;;17.83;35.46;100241.09;1774542;79;21399;-58
2023/04/11 13:30:51;;;;;;;18.15;6.10;;;;;;;17.92;35.51;100238.91;1781714;79;21342;-61
2023/04/11 13:33:58;;;;;;;11.73;3.92;;;;;;;17.98;35.45;100224.14;1773288;79;21817;-60
2023/04/11 13:37:04;;;;;;;10.23;3.92;;;;;;;18.03;35.43;100216.83;1779934;79;21269;-65
2023/04/11 13:40:14;;;;;;;9.53;4.00;;;;;;;18.12;35.43;100214.63;1789025;79;21498;-61
2023/04/11 13:43:21;;;;;;;10.78;3.70;;;;;;;18.15;35.33;100202.55;1800132;79;21217;-61
2023/04/11 13:46:26;;;;;;;11.45;4.85;;;;;;;18.17;35.28;100192.06;1800536;79;21213;-60
2023/04/11 13:49:33;;;;;;;12.10;3.72;;;;;;;18.24;35.32;100201.16;1800488;79;21332;-61
2023/04/11 13:52:39;;;;;;;9.78;3.72;;;;;;;18.36;35.30;100177.70;1801505;79;21232;-62
2023/04/11 13:55:47;;;;;;;11.30;4.28;;;;;;;18.41;35.23;100171.78;1802423;79;21194;-61
2023/04/11 13:58:55;;;;;;;10.75;4.25;;;;;;;18.42;35.19;100180.95;1781888;78;21610;-58
2023/04/11 14:02:03;;;;;;;9.73;4.62;;;;;;;18.38;35.11;100179.17;1774967;79;21876;-58
2023/04/11 14:05:10;;;;;;;8.70;4.53;;;;;;;18.32;35.05;100179.22;1763205;81;21193;-59
2023/04/11 14:08:17;;;;;;;16.60;4.15;;;;;;;18.30;35.07;100182.22;1793938;78;21719;-57
2023/04/11 14:11:16;;;;;;;10.05;3.98;;;;;;;18.23;34.97;100178.70;1780140;79;21770;-59
2023/04/11 14:14:22;;;;;;;8.90;3.70;;;;;;;18.14;34.93;100177.28;1801871;79;21197;-59
2023/04/11 14:17:27;;;;;;;8.55;3.85;;;;;;;18.07;34.94;100179.30;1789692;79;21177;-59
2023/04/11 14:20:34;;;;;;;11.90;4.05;;;;;;;18.01;35.00;100176.59;1713800;82;21219;-59
2023/04/11 14:23:42;;;;;;;11.18;3.83;;;;;;;17.92;34.94;100176.03;1733269;82;21197;-59
2023/04/11 14:26:49;;;;;;;13.13;3.98;;;;;;;17.84;34.92;100176.31;1785069;78;21194;-58
2023/04/11 14:29:56;;;;;;;8.60;3.70;;;;;;;17.75;34.95;100180.45;1779425;79;21199;-59